createdAt,value
2023-05-25T00:01:04.664Z,79
2023-05-25T00:02:29.304Z,79
2023-05-25T00:03:36.549Z,80
2023-05-25T00:04:45.331Z,79
2023-05-25T00:07:57.298Z,80
2023-05-25T00:09:53.654Z,80
2023-05-25T00:11:09.200Z,80
2023-05-25T00:12:47.263Z,80
2023-05-25T00:13:57.282Z,80
2023-05-25T00:15:05.320Z,80
2023-05-25T00:16:12.584Z,80
2023-05-25T00:17:22.205Z,81
2023-05-25T00:18:33.084Z,81
2023-05-25T00:19:40.075Z,80
2023-05-25T00:20:55.142Z,80
2023-05-25T00:22:02.111Z,80
2023-05-25T00:23:09.476Z,80
2023-05-25T00:24:19.443Z,80
2023-05-25T00:25:26.460Z,80
2023-05-25T00:26:42.273Z,80
2023-05-25T00:28:49.601Z,80
2023-05-25T00:30:10.231Z,80
2023-05-25T00:31:17.406Z,80
2023-05-25T00:32:24.283Z,81
2023-05-25T00:33:41.252Z,80
2023-05-25T00:34:58.814Z,80
2023-05-25T00:36:05.755Z,80
2023-05-25T00:37:12.650Z,80
2023-05-25T00:38:19.442Z,79
2023-05-25T00:39:26.360Z,79
2023-05-25T00:40:33.153Z,79
2023-05-25T00:41:49.399Z,79
2023-05-25T00:42:56.343Z,79
2023-05-25T00:44:03.138Z,79
2023-05-25T00:45:09.976Z,79
2023-05-25T00:46:17.113Z,79
2023-05-25T00:47:23.920Z,79
2023-05-25T00:48:30.818Z,78
2023-05-25T00:49:38.510Z,78
2023-05-25T00:50:45.400Z,78
2023-05-25T00:51:52.179Z,79
2023-05-25T00:52:59.043Z,79
2023-05-25T00:54:06.208Z,79
2023-05-25T00:55:13.068Z,79
2023-05-25T00:56:19.845Z,79
2023-05-25T00:57:35.626Z,79
2023-05-25T00:58:42.466Z,79
2023-05-25T00:59:49.232Z,79
2023-05-25T01:00:56.011Z,79
2023-05-25T01:02:02.936Z,79
2023-05-25T01:03:12.740Z,79
2023-05-25T01:04:19.441Z,79
2023-05-25T01:05:26.439Z,80
2023-05-25T01:06:33.203Z,80
2023-05-25T01:07:40.022Z,80
2023-05-25T01:08:46.841Z,80
2023-05-25T01:09:53.700Z,80
2023-05-25T01:11:00.469Z,80
2023-05-25T01:12:07.283Z,81
2023-05-25T01:13:14.066Z,81
2023-05-25T01:14:20.895Z,80
2023-05-25T01:15:27.750Z,81
2023-05-25T01:16:34.562Z,81
2023-05-25T01:17:41.397Z,81
2023-05-25T01:18:48.215Z,81
2023-05-25T01:21:02.000Z,82
2023-05-25T01:22:18.810Z,82
2023-05-25T01:23:31.176Z,81
2023-05-25T01:24:38.018Z,80
2023-05-25T01:25:47.839Z,80
2023-05-25T01:26:54.662Z,80
2023-05-25T01:28:01.473Z,80
2023-05-25T01:29:11.040Z,80
2023-05-25T01:30:17.846Z,80
2023-05-25T01:31:24.710Z,81
2023-05-25T01:32:31.388Z,80
2023-05-25T01:33:38.204Z,80
2023-05-25T01:34:44.971Z,81
2023-05-25T01:35:51.787Z,81
2023-05-25T01:36:58.584Z,81
2023-05-25T01:38:05.334Z,81
2023-05-25T01:39:12.167Z,81
2023-05-25T01:40:19.004Z,80
2023-05-25T01:41:25.774Z,80
2023-05-25T01:42:32.554Z,80
2023-05-25T01:43:39.517Z,80
2023-05-25T01:44:46.435Z,80
2023-05-25T01:45:53.307Z,81
2023-05-25T01:47:00.025Z,81
2023-05-25T01:48:06.862Z,81
2023-05-25T01:49:16.792Z,80
2023-05-25T01:50:28.630Z,80
2023-05-25T01:51:40.461Z,80
2023-05-25T01:52:52.389Z,81
2023-05-25T01:54:01.785Z,81
2023-05-25T01:55:08.570Z,81
2023-05-25T01:56:15.386Z,81
2023-05-25T01:57:22.293Z,81
2023-05-25T01:58:29.177Z,80
2023-05-25T01:59:35.956Z,80
2023-05-25T02:00:42.821Z,80
2023-05-25T02:01:52.131Z,80
2023-05-25T02:02:56.749Z,80
2023-05-25T02:04:03.518Z,80
2023-05-25T02:05:10.292Z,80
2023-05-25T02:06:17.132Z,80
2023-05-25T02:07:23.895Z,80
2023-05-25T02:08:30.828Z,80
2023-05-25T02:09:37.655Z,79
2023-05-25T02:10:44.424Z,79
2023-05-25T02:11:51.217Z,79
2023-05-25T02:12:58.030Z,79
2023-05-25T02:14:04.863Z,79
2023-05-25T02:15:11.682Z,79
2023-05-25T02:16:18.560Z,79
2023-05-25T02:17:25.381Z,79
2023-05-25T02:18:32.233Z,79
2023-05-25T02:19:39.112Z,79
2023-05-25T02:20:45.958Z,81
2023-05-25T02:21:52.772Z,81
2023-05-25T02:22:59.541Z,81
2023-05-25T02:24:06.294Z,81
2023-05-25T02:25:13.117Z,82
2023-05-25T02:26:19.955Z,82
2023-05-25T02:27:26.771Z,83
2023-05-25T02:28:33.696Z,83
2023-05-25T02:29:40.578Z,83
2023-05-25T02:30:47.491Z,83
2023-05-25T02:31:54.293Z,83
2023-05-25T02:33:01.233Z,83
2023-05-25T02:34:08.084Z,83
2023-05-25T02:35:14.813Z,83
2023-05-25T02:36:21.550Z,83
2023-05-25T02:37:28.410Z,83
2023-05-25T02:38:35.276Z,83
2023-05-25T02:39:42.194Z,83
2023-05-25T02:40:49.015Z,83
2023-05-25T02:41:55.797Z,83
2023-05-25T02:43:02.626Z,83
2023-05-25T02:44:09.442Z,83
2023-05-25T02:45:16.314Z,83
2023-05-25T02:46:23.135Z,83
2023-05-25T02:47:29.933Z,83
2023-05-25T02:48:36.701Z,83
2023-05-25T02:49:43.607Z,83
2023-05-25T02:50:50.379Z,83
2023-05-25T02:51:57.278Z,83
2023-05-25T02:53:04.074Z,84
2023-05-25T02:54:10.814Z,83
2023-05-25T02:55:17.678Z,83
2023-05-25T02:56:24.448Z,83
2023-05-25T02:57:31.242Z,83
2023-05-25T02:58:38.026Z,83
2023-05-25T02:59:44.893Z,83
2023-05-25T03:00:51.787Z,83
2023-05-25T03:01:58.661Z,84
2023-05-25T03:03:05.459Z,83
2023-05-25T03:04:12.125Z,83
2023-05-25T03:05:18.957Z,83
2023-05-25T03:06:25.781Z,83
2023-05-25T03:07:32.594Z,83
2023-05-25T03:08:39.438Z,83
2023-05-25T03:09:46.202Z,83
2023-05-25T03:10:53.205Z,83
2023-05-25T03:12:00.079Z,83
2023-05-25T03:13:06.882Z,83
2023-05-25T03:14:13.709Z,83
2023-05-25T03:15:20.512Z,83
2023-05-25T03:16:27.358Z,83
2023-05-25T03:17:34.234Z,83
2023-05-25T03:18:40.954Z,83
2023-05-25T03:19:47.830Z,84
2023-05-25T03:20:54.806Z,84
2023-05-25T03:22:01.738Z,84
2023-05-25T03:23:08.554Z,84
2023-05-25T03:24:15.380Z,84
2023-05-25T03:25:22.155Z,84
2023-05-25T03:26:29.032Z,84
2023-05-25T03:27:35.789Z,84
2023-05-25T03:28:42.600Z,84
2023-05-25T03:29:49.330Z,84
2023-05-25T03:30:56.123Z,84
2023-05-25T03:32:02.902Z,84
2023-05-25T03:33:09.978Z,84
2023-05-25T03:34:16.659Z,84
2023-05-25T03:35:23.375Z,84
2023-05-25T03:36:30.152Z,84
2023-05-25T03:37:36.971Z,84
2023-05-25T03:38:43.715Z,85
2023-05-25T03:39:50.458Z,84
2023-05-25T03:40:57.205Z,84
2023-05-25T03:42:04.069Z,84
2023-05-25T03:43:10.910Z,84
2023-05-25T03:44:17.659Z,84
2023-05-25T03:45:24.436Z,84
2023-05-25T03:46:31.334Z,84
2023-05-25T03:47:38.152Z,84
2023-05-25T03:48:44.909Z,84
2023-05-25T03:49:51.660Z,84
2023-05-25T03:50:58.386Z,84
2023-05-25T03:52:05.276Z,84
2023-05-25T03:53:11.987Z,84
2023-05-25T03:54:18.780Z,84
2023-05-25T03:55:25.596Z,84
2023-05-25T03:56:32.283Z,84
2023-05-25T03:57:39.120Z,84
2023-05-25T03:58:45.923Z,84
2023-05-25T03:59:52.643Z,84
2023-05-25T04:00:59.412Z,84
2023-05-25T04:02:06.354Z,84
2023-05-25T04:03:13.229Z,84
2023-05-25T04:04:19.977Z,84
2023-05-25T04:05:26.756Z,85
2023-05-25T04:06:33.549Z,84
2023-05-25T04:07:40.460Z,84
2023-05-25T04:08:47.181Z,84
2023-05-25T04:09:53.962Z,84
2023-05-25T04:11:00.719Z,84
2023-05-25T04:12:07.608Z,84
2023-05-25T04:13:14.395Z,84
2023-05-25T04:14:21.141Z,84
2023-05-25T04:15:27.906Z,84
2023-05-25T04:16:34.670Z,84
2023-05-25T04:17:41.508Z,84
2023-05-25T04:18:48.351Z,84
2023-05-25T04:19:55.135Z,84
2023-05-25T04:21:01.873Z,84
2023-05-25T04:22:08.639Z,84
2023-05-25T04:23:15.478Z,84
2023-05-25T04:24:22.194Z,84
2023-05-25T04:25:29.758Z,85
2023-05-25T04:26:35.715Z,84
2023-05-25T04:27:42.454Z,85
2023-05-25T04:28:49.217Z,84
2023-05-25T04:29:56.020Z,85
2023-05-25T04:31:02.837Z,85
2023-05-25T04:32:09.764Z,85
2023-05-25T04:33:16.466Z,85
2023-05-25T04:34:23.288Z,85
2023-05-25T04:35:30.041Z,85
2023-05-25T04:36:36.862Z,85
2023-05-25T04:37:43.620Z,84
2023-05-25T04:38:50.483Z,85
2023-05-25T04:39:57.344Z,85
2023-05-25T04:41:04.166Z,84
2023-05-25T04:42:11.087Z,84
2023-05-25T04:43:17.804Z,84
2023-05-25T04:44:24.641Z,84
2023-05-25T04:45:31.479Z,85
2023-05-25T04:46:38.223Z,85
2023-05-25T04:47:45.056Z,85
2023-05-25T04:48:51.920Z,85
2023-05-25T04:49:58.864Z,84
2023-05-25T04:51:05.642Z,84
2023-05-25T04:52:12.450Z,84
2023-05-25T04:53:19.188Z,84
2023-05-25T04:54:26.091Z,84
2023-05-25T04:55:32.897Z,85
2023-05-25T04:56:39.735Z,85
2023-05-25T04:57:46.553Z,85
2023-05-25T04:58:53.340Z,85
2023-05-25T05:00:00.146Z,85
2023-05-25T05:01:07.073Z,85
2023-05-25T05:02:13.928Z,85
2023-05-25T05:03:20.881Z,85
2023-05-25T05:04:27.624Z,85
2023-05-25T05:05:35.656Z,85
2023-05-25T05:06:42.424Z,84
2023-05-25T05:07:49.150Z,84
2023-05-25T05:08:55.951Z,85
2023-05-25T05:10:02.813Z,85
2023-05-25T05:11:09.895Z,84
2023-05-25T05:12:16.706Z,85
2023-05-25T05:13:23.530Z,85
2023-05-25T05:14:30.428Z,85
2023-05-25T05:15:37.337Z,84
2023-05-25T05:16:44.134Z,84
2023-05-25T05:17:50.949Z,84
2023-05-25T05:18:57.675Z,85
2023-05-25T05:20:04.522Z,85
2023-05-25T05:21:11.739Z,85
2023-05-25T05:22:18.471Z,85
2023-05-25T05:23:25.307Z,85
2023-05-25T05:24:32.084Z,85
2023-05-25T05:25:39.044Z,85
2023-05-25T05:26:57.037Z,85
2023-05-25T05:27:52.761Z,85
2023-05-25T05:28:59.616Z,85
2023-05-25T05:30:06.442Z,85
2023-05-25T05:31:13.440Z,84
2023-05-25T05:32:20.330Z,85
2023-05-25T05:33:27.152Z,84
2023-05-25T05:34:33.989Z,84
2023-05-25T05:35:40.817Z,85
2023-05-25T05:36:57.132Z,85
2023-05-25T05:37:54.396Z,85
2023-05-25T05:39:01.141Z,85
2023-05-25T05:40:07.894Z,85
2023-05-25T05:41:14.891Z,85
2023-05-25T05:42:21.873Z,85
2023-05-25T05:43:28.670Z,84
2023-05-25T05:44:35.672Z,85
2023-05-25T05:45:42.529Z,85
2023-05-25T05:46:49.332Z,85
2023-05-25T05:47:56.196Z,85
2023-05-25T05:49:02.916Z,84
2023-05-25T05:50:09.701Z,85
2023-05-25T05:51:16.510Z,85
2023-05-25T05:52:23.405Z,85
2023-05-25T05:53:30.175Z,85
2023-05-25T05:54:36.966Z,86
2023-05-25T05:55:43.954Z,86
2023-05-25T05:56:50.603Z,86
2023-05-25T05:57:57.476Z,85
2023-05-25T05:59:04.275Z,85
2023-05-25T06:00:11.112Z,85
2023-05-25T06:01:18.124Z,85
2023-05-25T06:02:25.135Z,85
2023-05-25T06:03:31.915Z,85
2023-05-25T06:04:38.685Z,84
2023-05-25T06:05:45.723Z,85
2023-05-25T06:06:52.290Z,85
2023-05-25T06:07:59.069Z,85
2023-05-25T06:09:05.829Z,85
2023-05-25T06:10:12.656Z,85
2023-05-25T06:11:19.414Z,85
2023-05-25T06:12:26.264Z,85
2023-05-25T06:13:33.080Z,84
2023-05-25T06:14:39.820Z,85
2023-05-25T06:15:46.973Z,85
2023-05-25T06:16:53.686Z,85
2023-05-25T06:18:00.554Z,84
2023-05-25T06:19:07.265Z,85
2023-05-25T06:20:14.191Z,84
2023-05-25T06:21:21.130Z,85
2023-05-25T06:22:27.918Z,84
2023-05-25T06:23:34.867Z,84
2023-05-25T06:24:41.611Z,85
2023-05-25T06:25:48.366Z,85
2023-05-25T06:26:55.144Z,85
2023-05-25T06:28:01.989Z,85
2023-05-25T06:29:08.854Z,85
2023-05-25T06:30:15.662Z,85
2023-05-25T06:31:22.556Z,85
2023-05-25T06:32:29.382Z,85
2023-05-25T06:33:36.147Z,85
2023-05-25T06:34:42.911Z,85
2023-05-25T06:35:51.089Z,85
2023-05-25T06:36:56.496Z,85
2023-05-25T06:38:03.536Z,85
2023-05-25T06:39:10.352Z,85
2023-05-25T06:40:17.137Z,85
2023-05-25T06:41:23.916Z,85
2023-05-25T06:42:30.737Z,85
2023-05-25T06:43:37.640Z,85
2023-05-25T06:44:44.471Z,85
2023-05-25T06:45:51.319Z,85
2023-05-25T06:46:58.169Z,85
2023-05-25T06:48:04.933Z,85
2023-05-25T06:49:11.738Z,84
2023-05-25T06:50:18.860Z,84
2023-05-25T06:51:25.653Z,84
2023-05-25T06:52:32.449Z,84
2023-05-25T06:53:39.205Z,84
2023-05-25T06:54:46.098Z,84
2023-05-25T06:55:52.856Z,85
2023-05-25T06:56:59.688Z,84
2023-05-25T06:58:06.502Z,84
2023-05-25T06:59:13.431Z,85
2023-05-25T07:00:20.245Z,85
2023-05-25T07:01:27.182Z,85
2023-05-25T07:02:34.134Z,84
2023-05-25T07:03:40.780Z,84
2023-05-25T07:04:47.739Z,84
2023-05-25T07:05:54.632Z,83
2023-05-25T07:07:01.411Z,83
2023-05-25T07:08:08.316Z,83
2023-05-25T07:09:15.125Z,83
2023-05-25T07:10:21.969Z,83
2023-05-25T07:11:28.838Z,83
2023-05-25T07:12:35.663Z,82
2023-05-25T07:13:42.578Z,82
2023-05-25T07:14:49.359Z,82
2023-05-25T07:15:56.254Z,83
2023-05-25T07:17:03.089Z,82
2023-05-25T07:18:09.892Z,82
2023-05-25T07:19:16.702Z,82
2023-05-25T07:20:23.532Z,82
2023-05-25T07:21:30.356Z,81
2023-05-25T07:22:37.130Z,82
2023-05-25T07:23:43.900Z,82
2023-05-25T07:24:50.686Z,82
2023-05-25T07:25:57.520Z,82
2023-05-25T07:27:04.399Z,81
2023-05-25T07:28:11.144Z,82
2023-05-25T07:29:17.975Z,81
2023-05-25T07:30:24.859Z,81
2023-05-25T07:31:31.668Z,81
2023-05-25T07:32:38.488Z,81
2023-05-25T07:33:45.220Z,81
2023-05-25T07:34:51.980Z,81
2023-05-25T07:35:58.860Z,81
2023-05-25T07:37:05.780Z,80
2023-05-25T07:38:12.527Z,80
2023-05-25T07:39:19.380Z,80
2023-05-25T07:40:26.190Z,80
2023-05-25T07:41:33.052Z,81
2023-05-25T07:42:39.969Z,80
2023-05-25T07:43:46.744Z,80
2023-05-25T07:44:53.730Z,80
2023-05-25T07:46:00.568Z,80
2023-05-25T07:47:07.520Z,80
2023-05-25T07:48:14.302Z,80
2023-05-25T07:49:21.122Z,80
2023-05-25T07:50:28.962Z,80
2023-05-25T07:51:35.705Z,80
2023-05-25T07:52:42.481Z,80
2023-05-25T07:53:49.325Z,80
2023-05-25T07:54:56.141Z,80
2023-05-25T07:56:02.930Z,80
2023-05-25T07:57:09.955Z,79
2023-05-25T07:58:16.786Z,79
2023-05-25T07:59:23.568Z,80
2023-05-25T08:00:30.405Z,79
2023-05-25T08:01:37.251Z,80
2023-05-25T08:02:44.179Z,79
2023-05-25T08:03:50.924Z,79
2023-05-25T08:04:57.787Z,79
2023-05-25T08:06:04.543Z,79
2023-05-25T08:07:11.442Z,80
2023-05-25T08:08:18.230Z,80
2023-05-25T08:09:25.068Z,79
2023-05-25T08:10:32.885Z,79
2023-05-25T08:11:39.691Z,81
2023-05-25T08:12:49.135Z,80
2023-05-25T08:13:53.332Z,80
2023-05-25T08:15:00.187Z,80
2023-05-25T08:16:07.218Z,80
2023-05-25T08:17:14.149Z,80
2023-05-25T08:18:20.812Z,80
2023-05-25T08:19:27.657Z,80
2023-05-25T08:20:37.569Z,80
2023-05-25T08:21:44.274Z,80
2023-05-25T08:22:51.008Z,79
2023-05-25T08:23:57.755Z,79
2023-05-25T08:25:04.563Z,80
2023-05-25T08:26:28.942Z,80
2023-05-25T08:27:18.278Z,79
2023-05-25T08:28:25.062Z,80
2023-05-25T08:29:31.874Z,79
2023-05-25T08:30:38.717Z,79
2023-05-25T08:31:45.401Z,79
2023-05-25T08:32:52.261Z,80
2023-05-25T08:33:59.046Z,79
2023-05-25T08:35:05.789Z,79
2023-05-25T08:36:12.689Z,79
2023-05-25T08:37:19.431Z,79
2023-05-25T08:38:26.181Z,79
2023-05-25T08:39:34.763Z,79
2023-05-25T08:40:39.815Z,79
2023-05-25T08:41:46.557Z,79
2023-05-25T08:42:53.356Z,80
2023-05-25T08:44:00.189Z,79
2023-05-25T08:45:06.949Z,79
2023-05-25T08:46:13.861Z,80
2023-05-25T08:47:23.508Z,79
2023-05-25T08:48:39.832Z,79
2023-05-25T08:49:37.101Z,79
2023-05-25T08:50:43.837Z,78
2023-05-25T08:51:50.683Z,78
2023-05-25T08:52:57.456Z,78
2023-05-25T08:54:04.234Z,78
2023-05-25T08:55:13.602Z,79
2023-05-25T08:56:20.408Z,79
2023-05-25T08:57:27.390Z,80
2023-05-25T08:58:42.040Z,79
2023-05-25T08:59:48.829Z,79
2023-05-25T09:01:03.329Z,79
2023-05-25T09:02:10.311Z,79
2023-05-25T09:03:27.342Z,79
2023-05-25T09:04:36.942Z,79
2023-05-25T09:05:43.956Z,79
2023-05-25T09:07:01.966Z,79
2023-05-25T09:07:57.270Z,79
2023-05-25T09:09:06.414Z,79
2023-05-25T09:10:15.246Z,79
2023-05-25T09:11:35.160Z,79
2023-05-25T09:12:29.327Z,79
2023-05-25T09:13:36.095Z,78
2023-05-25T09:14:42.858Z,78
2023-05-25T09:15:49.788Z,78
2023-05-25T09:16:56.631Z,79
2023-05-25T09:18:03.392Z,78
2023-05-25T09:19:10.118Z,78
2023-05-25T09:20:16.954Z,78
2023-05-25T09:21:23.747Z,78
2023-05-25T09:22:30.629Z,79
2023-05-25T09:23:37.475Z,79
2023-05-25T09:24:44.626Z,78
2023-05-25T09:25:51.057Z,79
2023-05-25T09:26:58.027Z,79
2023-05-25T09:28:24.572Z,79
2023-05-25T09:29:11.857Z,80
2023-05-25T09:30:18.665Z,80
2023-05-25T09:31:25.546Z,80
2023-05-25T09:32:32.459Z,80
2023-05-25T09:33:39.141Z,79
2023-05-25T09:34:45.889Z,80
2023-05-25T09:35:52.647Z,79
2023-05-25T09:36:59.722Z,79
2023-05-25T09:38:14.993Z,79
2023-05-25T09:39:21.686Z,79
2023-05-25T09:40:28.384Z,79
2023-05-25T09:41:37.996Z,78
2023-05-25T09:42:44.769Z,78
2023-05-25T09:44:01.825Z,78
2023-05-25T09:44:58.301Z,78
2023-05-25T09:46:05.191Z,78
2023-05-25T09:47:12.165Z,78
2023-05-25T09:48:18.917Z,78
2023-05-25T09:49:25.764Z,77
2023-05-25T09:50:32.536Z,78
2023-05-25T09:51:39.352Z,78
2023-05-25T09:52:46.157Z,77
2023-05-25T09:53:52.917Z,77
2023-05-25T09:54:59.766Z,77
2023-05-25T09:56:06.676Z,77
2023-05-25T09:57:13.500Z,77
2023-05-25T09:58:20.279Z,77
2023-05-25T09:59:27.080Z,77
2023-05-25T10:00:33.903Z,77
2023-05-25T10:01:41.987Z,76
2023-05-25T10:02:50.480Z,76
2023-05-25T10:04:04.071Z,77
2023-05-25T10:05:05.239Z,77
2023-05-25T10:06:12.088Z,76
2023-05-25T10:07:18.924Z,76
2023-05-25T10:08:28.715Z,76
2023-05-25T10:09:32.564Z,76
2023-05-25T10:10:39.489Z,76
2023-05-25T10:11:46.265Z,76
2023-05-25T10:12:53.066Z,76
2023-05-25T10:13:59.894Z,76
2023-05-25T10:15:06.722Z,76
2023-05-25T10:16:13.749Z,76
2023-05-25T10:17:23.533Z,76
2023-05-25T10:18:30.232Z,76
2023-05-25T10:19:37.110Z,76
2023-05-25T10:20:44.011Z,76
2023-05-25T10:21:50.732Z,76
2023-05-25T10:22:57.540Z,76
2023-05-25T10:24:04.385Z,75
2023-05-25T10:25:14.178Z,75
2023-05-25T10:26:28.850Z,75
2023-05-25T10:27:35.526Z,76
2023-05-25T10:28:42.296Z,76
2023-05-25T10:29:49.242Z,77
2023-05-25T10:30:56.258Z,76
2023-05-25T10:32:03.110Z,76
2023-05-25T10:33:11.545Z,75
2023-05-25T10:34:21.388Z,75
2023-05-25T10:35:28.546Z,75
2023-05-25T10:36:34.971Z,75
2023-05-25T10:37:41.853Z,74
2023-05-25T10:38:48.644Z,74
2023-05-25T10:39:55.477Z,74
2023-05-25T10:41:02.307Z,75
2023-05-25T10:42:09.230Z,75
2023-05-25T10:43:16.042Z,76
2023-05-25T10:44:22.885Z,75
2023-05-25T10:45:29.619Z,74
2023-05-25T10:46:36.487Z,75
2023-05-25T10:47:43.584Z,74
2023-05-25T10:48:50.277Z,74
2023-05-25T10:49:57.025Z,74
2023-05-25T10:51:03.818Z,74
2023-05-25T10:52:10.599Z,74
2023-05-25T10:53:17.418Z,74
2023-05-25T10:54:24.172Z,74
2023-05-25T10:55:33.611Z,75
2023-05-25T10:56:50.702Z,74
2023-05-25T10:58:08.811Z,75
2023-05-25T10:59:15.508Z,74
2023-05-25T11:00:27.388Z,74
2023-05-25T11:01:34.393Z,75
2023-05-25T11:02:41.014Z,75
2023-05-25T11:03:52.928Z,75
2023-05-25T11:04:59.715Z,75
2023-05-25T11:06:16.638Z,75
2023-05-25T11:07:23.565Z,75
2023-05-25T11:08:30.348Z,75
2023-05-25T11:09:47.285Z,75
2023-05-25T11:11:01.944Z,75
2023-05-25T11:12:08.843Z,74
2023-05-25T11:13:20.685Z,75
2023-05-25T11:14:32.538Z,74
2023-05-25T11:15:42.392Z,74
2023-05-25T11:16:49.119Z,74
2023-05-25T11:18:06.026Z,74
2023-05-25T11:19:12.734Z,74
2023-05-25T11:20:19.546Z,74
2023-05-25T11:21:29.012Z,74
2023-05-25T11:22:38.888Z,74
2023-05-25T11:23:45.759Z,74
2023-05-25T11:24:58.005Z,75
2023-05-25T11:26:04.896Z,75
2023-05-25T11:27:11.714Z,75
2023-05-25T11:28:18.474Z,74
2023-05-25T11:29:25.383Z,75
2023-05-25T11:30:32.077Z,75
2023-05-25T11:31:42.417Z,75
2023-05-25T11:32:45.748Z,75
2023-05-25T11:33:52.536Z,76
2023-05-25T11:34:59.302Z,76
2023-05-25T11:36:06.105Z,76
2023-05-25T11:37:12.999Z,76
2023-05-25T11:38:19.787Z,77
2023-05-25T11:39:26.543Z,76
2023-05-25T11:40:33.422Z,76
2023-05-25T11:41:40.322Z,76
2023-05-25T11:42:47.133Z,75
2023-05-25T11:43:53.897Z,75
2023-05-25T11:45:00.721Z,75
2023-05-25T11:46:07.789Z,76
2023-05-25T11:47:14.599Z,75
2023-05-25T11:48:21.397Z,75
2023-05-25T11:49:28.223Z,75
2023-05-25T11:50:35.050Z,75
2023-05-25T11:51:41.897Z,75
2023-05-25T11:52:48.721Z,75
2023-05-25T11:53:55.525Z,75
2023-05-25T11:55:02.355Z,75
2023-05-25T11:56:20.765Z,75
2023-05-25T11:57:21.116Z,77
2023-05-25T11:58:28.035Z,76
2023-05-25T11:59:40.138Z,76
2023-05-25T12:00:54.671Z,76
2023-05-25T12:02:01.607Z,76
2023-05-25T12:03:08.527Z,76
2023-05-25T12:04:15.305Z,76
2023-05-25T12:05:22.164Z,76
2023-05-25T12:06:28.978Z,76
2023-05-25T12:07:36.197Z,76
2023-05-25T12:08:45.617Z,77
2023-05-25T12:09:52.384Z,77
2023-05-25T12:11:07.178Z,77
2023-05-25T12:12:14.113Z,78
2023-05-25T12:13:20.891Z,77
2023-05-25T12:14:27.651Z,76
2023-05-25T12:15:34.410Z,77
2023-05-25T12:16:41.335Z,77
2023-05-25T12:17:48.131Z,77
2023-05-25T12:18:54.877Z,77
2023-05-25T12:20:01.702Z,76
2023-05-25T12:21:08.742Z,76
2023-05-25T12:22:18.369Z,78
2023-05-25T12:23:25.181Z,77
2023-05-25T12:24:32.028Z,77
2023-05-25T12:25:49.522Z,77
2023-05-25T12:26:45.585Z,77
2023-05-25T12:27:55.149Z,78
2023-05-25T12:29:11.996Z,78
2023-05-25T12:30:18.903Z,78
2023-05-25T12:31:25.805Z,78
2023-05-25T12:32:32.670Z,78
2023-05-25T12:33:39.414Z,77
2023-05-25T12:34:46.193Z,77
2023-05-25T12:35:53.061Z,77
2023-05-25T12:36:59.839Z,77
2023-05-25T12:38:06.696Z,77
2023-05-25T12:39:22.530Z,77
2023-05-25T12:40:33.166Z,77
2023-05-25T12:41:39.928Z,77
2023-05-25T12:42:49.536Z,77
2023-05-25T12:43:58.908Z,77
2023-05-25T12:45:05.875Z,77
2023-05-25T12:46:12.987Z,78
2023-05-25T12:47:19.925Z,78
2023-05-25T12:48:26.673Z,78
2023-05-25T12:49:33.474Z,77
2023-05-25T12:50:41.138Z,77
2023-05-25T12:51:52.229Z,78
2023-05-25T12:52:59.030Z,78
2023-05-25T12:54:05.808Z,77
2023-05-25T12:55:12.614Z,77
2023-05-25T12:56:40.459Z,76
2023-05-25T12:58:07.522Z,76
2023-05-25T12:59:14.392Z,76
2023-05-25T13:00:21.175Z,76
2023-05-25T13:01:28.019Z,75
2023-05-25T13:02:34.887Z,76
2023-05-25T13:03:41.916Z,76
2023-05-25T13:04:48.760Z,76
2023-05-25T13:05:55.509Z,76
2023-05-25T13:07:04.855Z,76
2023-05-25T13:08:11.570Z,76
2023-05-25T13:09:18.436Z,77
2023-05-25T13:10:25.399Z,77
2023-05-25T13:11:32.128Z,76
2023-05-25T13:12:38.927Z,76
2023-05-25T13:13:45.725Z,76
2023-05-25T13:14:52.504Z,76
2023-05-25T13:15:59.349Z,76
2023-05-25T13:17:06.075Z,76
2023-05-25T13:18:13.010Z,76
2023-05-25T13:19:19.928Z,76
2023-05-25T13:20:26.724Z,76
2023-05-25T13:21:33.491Z,76
2023-05-25T13:22:40.256Z,76
2023-05-25T13:23:47.031Z,76
2023-05-25T13:24:53.913Z,76
2023-05-25T13:26:00.780Z,76
2023-05-25T13:27:07.674Z,76
2023-05-25T13:28:14.432Z,76
2023-05-25T13:29:21.209Z,76
2023-05-25T13:30:28.044Z,77
2023-05-25T13:31:34.888Z,77
2023-05-25T13:32:41.752Z,77
2023-05-25T13:33:48.462Z,77
2023-05-25T13:34:55.282Z,77
2023-05-25T13:36:02.084Z,77
2023-05-25T13:37:11.914Z,76
2023-05-25T13:38:18.687Z,77
2023-05-25T13:39:25.511Z,77
2023-05-25T13:40:32.324Z,77
2023-05-25T13:41:39.105Z,77
2023-05-25T13:42:45.940Z,77
2023-05-25T13:43:52.758Z,77
2023-05-25T13:44:59.515Z,77
2023-05-25T13:46:06.321Z,77
2023-05-25T13:47:13.271Z,77
2023-05-25T13:48:20.284Z,77
2023-05-25T13:49:27.025Z,76
2023-05-25T13:50:33.851Z,76
2023-05-25T13:51:53.122Z,76
2023-05-25T13:53:00.016Z,76
2023-05-25T13:54:06.928Z,76
2023-05-25T13:55:13.749Z,76
2023-05-25T13:56:20.554Z,76
2023-05-25T13:57:27.614Z,76
2023-05-25T13:58:34.423Z,76
2023-05-25T13:59:41.216Z,76
2023-05-25T14:00:48.008Z,76
2023-05-25T14:01:56.108Z,76
2023-05-25T14:03:01.770Z,76
2023-05-25T14:04:08.523Z,76
2023-05-25T14:05:15.317Z,76
2023-05-25T14:06:22.145Z,76
2023-05-25T14:07:29.035Z,76
2023-05-25T14:08:35.887Z,77
2023-05-25T14:09:42.843Z,77
2023-05-25T14:10:49.496Z,77
2023-05-25T14:11:56.284Z,77
2023-05-25T14:13:03.247Z,77
2023-05-25T14:14:19.679Z,77
2023-05-25T14:15:17.070Z,77
2023-05-25T14:16:23.889Z,77
2023-05-25T14:17:30.688Z,77
2023-05-25T14:18:37.536Z,77
2023-05-25T14:19:44.311Z,77
2023-05-25T14:20:51.151Z,77
2023-05-25T14:23:04.779Z,77
2023-05-25T14:24:11.607Z,78
2023-05-25T14:25:18.351Z,79
2023-05-25T14:26:25.103Z,79
2023-05-25T14:27:31.932Z,78
2023-05-25T14:28:38.786Z,78
2023-05-25T14:29:45.586Z,77
2023-05-25T14:30:52.338Z,77
2023-05-25T14:31:59.112Z,78
2023-05-25T14:33:06.086Z,78
2023-05-25T14:34:12.868Z,77
2023-05-25T14:35:19.686Z,77
2023-05-25T14:36:26.530Z,77
2023-05-25T14:37:33.378Z,77
2023-05-25T14:38:40.275Z,78
2023-05-25T14:39:47.050Z,78
2023-05-25T14:40:53.834Z,77
2023-05-25T14:42:00.619Z,77
2023-05-25T14:43:07.505Z,77
2023-05-25T14:44:14.406Z,78
2023-05-25T14:45:21.184Z,78
2023-05-25T14:46:27.996Z,78
2023-05-25T14:47:34.787Z,77
2023-05-25T14:48:41.639Z,77
2023-05-25T14:49:48.399Z,77
2023-05-25T14:50:55.143Z,78
2023-05-25T14:52:01.934Z,79
2023-05-25T14:53:08.794Z,78
2023-05-25T14:54:15.605Z,79
2023-05-25T14:55:22.509Z,78
2023-05-25T14:56:29.311Z,78
2023-05-25T14:57:36.088Z,77
2023-05-25T14:58:42.896Z,77
2023-05-25T14:59:49.760Z,77
2023-05-25T15:00:56.526Z,77
2023-05-25T15:02:03.375Z,77
2023-05-25T15:03:10.320Z,78
2023-05-25T15:04:17.051Z,77
2023-05-25T15:05:23.939Z,77
2023-05-25T15:06:30.818Z,78
2023-05-25T15:07:37.608Z,78
2023-05-25T15:08:44.387Z,78
2023-05-25T15:09:51.282Z,78
2023-05-25T15:10:58.129Z,78
2023-05-25T15:12:04.983Z,78
2023-05-25T15:13:13.283Z,78
2023-05-25T15:14:18.684Z,78
2023-05-25T15:15:25.571Z,77
2023-05-25T15:16:32.468Z,77
2023-05-25T15:17:39.237Z,77
2023-05-25T15:18:45.963Z,77
2023-05-25T15:19:52.821Z,77
2023-05-25T15:20:59.616Z,78
2023-05-25T15:22:06.532Z,77
2023-05-25T15:23:13.391Z,77
2023-05-25T15:24:20.172Z,78
2023-05-25T15:26:33.825Z,77
2023-05-25T15:27:40.594Z,78
2023-05-25T15:28:47.443Z,78
2023-05-25T15:29:54.249Z,78
2023-05-25T15:31:03.054Z,78
2023-05-25T15:32:08.027Z,78
2023-05-25T15:33:14.739Z,78
2023-05-25T15:34:21.499Z,78
2023-05-25T15:35:28.211Z,77
2023-05-25T15:36:35.084Z,78
2023-05-25T15:37:42.021Z,78
2023-05-25T15:38:49.216Z,77
2023-05-25T15:39:55.586Z,77
2023-05-25T15:41:02.364Z,78
2023-05-25T15:42:09.271Z,79
2023-05-25T15:43:16.096Z,78
2023-05-25T15:44:22.936Z,78
2023-05-25T15:45:29.702Z,78
2023-05-25T15:46:36.571Z,78
2023-05-25T15:47:43.460Z,77
2023-05-25T15:48:50.209Z,77
2023-05-25T15:49:56.977Z,77
2023-05-25T15:51:03.788Z,77
2023-05-25T15:52:10.592Z,77
2023-05-25T15:53:17.336Z,77
2023-05-25T15:54:24.082Z,77
2023-05-25T15:55:30.864Z,77
2023-05-25T15:56:37.615Z,77
2023-05-25T15:57:44.476Z,78
2023-05-25T15:58:51.277Z,77
2023-05-25T15:59:58.078Z,76
2023-05-25T16:01:05.147Z,76
2023-05-25T16:02:11.895Z,76
2023-05-25T16:03:18.735Z,77
2023-05-25T16:04:25.554Z,77
2023-05-25T16:05:32.273Z,77
2023-05-25T16:06:39.084Z,77
2023-05-25T16:07:45.954Z,77
2023-05-25T16:08:52.808Z,77